createdAt,value
2024-01-04T00:05:16.427Z,0
2024-01-04T00:11:38.425Z,0
2024-01-04T00:17:58.467Z,0
2024-01-04T00:24:20.424Z,0
2024-01-04T00:30:40.494Z,0
2024-01-04T00:37:02.524Z,0
2024-01-04T00:43:22.430Z,0
2024-01-04T00:49:44.523Z,0
2024-01-04T00:56:04.445Z,0
2024-01-04T01:02:26.478Z,0
2024-01-04T01:08:46.422Z,0
2024-01-04T01:15:08.526Z,0
2024-01-04T01:21:28.412Z,0
2024-01-04T01:27:50.419Z,0
2024-01-04T01:34:10.557Z,0
2024-01-04T01:40:32.398Z,0
2024-01-04T01:46:52.423Z,0
2024-01-04T01:53:15.274Z,0
2024-01-04T01:59:34.436Z,0
2024-01-04T02:05:56.532Z,0
2024-01-04T02:12:16.458Z,0
2024-01-04T02:18:39.533Z,0
2024-01-04T02:24:59.506Z,0
2024-01-04T02:31:21.409Z,0
2024-01-04T02:37:41.438Z,0
2024-01-04T02:44:03.413Z,0
2024-01-04T02:50:23.441Z,0
2024-01-04T02:56:45.460Z,0
2024-01-04T03:03:05.555Z,0
2024-01-04T03:09:27.436Z,0
2024-01-04T03:15:47.445Z,0
2024-01-04T03:22:09.398Z,0
2024-01-04T03:28:29.499Z,0
2024-01-04T03:34:51.441Z,0
2024-01-04T03:41:11.496Z,0
2024-01-04T03:47:33.593Z,0
2024-01-04T03:53:53.497Z,0
2024-01-04T04:00:15.510Z,0
2024-01-04T04:06:35.446Z,0
2024-01-04T04:12:57.397Z,0
2024-01-04T04:28:27.303Z,0
2024-01-04T04:34:46.504Z,0
2024-01-04T04:41:08.442Z,0
2024-01-04T04:47:28.444Z,0
2024-01-04T04:53:50.372Z,0
2024-01-04T05:00:10.430Z,0
2024-01-04T05:06:32.488Z,0
2024-01-04T05:12:53.183Z,0
2024-01-04T05:19:14.434Z,0
2024-01-04T05:25:34.409Z,0
2024-01-04T05:31:56.430Z,0
2024-01-04T05:38:18.441Z,0
2024-01-04T05:44:40.452Z,0
2024-01-04T05:51:00.498Z,0
2024-01-04T05:57:22.410Z,0
2024-01-04T06:03:42.554Z,0
2024-01-04T06:10:04.387Z,0
2024-01-04T06:16:24.420Z,0
2024-01-04T06:22:46.437Z,0
2024-01-04T06:29:06.386Z,0
2024-01-04T06:35:28.424Z,0
2024-01-04T06:41:48.480Z,0
2024-01-04T06:48:10.417Z,0
2024-01-04T06:54:30.463Z,0
2024-01-04T07:00:52.529Z,0
2024-01-04T07:07:12.436Z,0
2024-01-04T07:13:34.389Z,0
2024-01-04T07:19:54.417Z,0
2024-01-04T07:26:16.417Z,0
2024-01-04T07:32:36.417Z,0
2024-01-04T07:38:58.505Z,0
2024-01-04T07:45:18.409Z,0
2024-01-04T07:51:40.426Z,0
2024-01-04T07:58:00.503Z,0
2024-01-04T08:04:22.481Z,0
2024-01-04T08:10:42.477Z,0
2024-01-04T08:17:04.416Z,5.62
2024-01-04T08:23:24.409Z,5.62
2024-01-04T08:29:46.468Z,5.62
2024-01-04T08:36:07.832Z,0
2024-01-04T08:42:28.495Z,11.25
2024-01-04T08:48:48.466Z,5.62
2024-01-04T08:55:10.414Z,5.62
2024-01-04T09:01:30.445Z,11.25
2024-01-04T09:07:52.433Z,5.62
2024-01-04T09:14:12.534Z,11.25
2024-01-04T09:20:34.463Z,11.25
2024-01-04T09:26:54.456Z,16.88
2024-01-04T09:49:59.500Z,22.5
2024-01-04T09:56:21.393Z,22.5
2024-01-04T10:02:41.440Z,22.5
2024-01-04T10:09:03.404Z,45
2024-01-04T10:15:23.378Z,39.38
2024-01-04T10:21:46.870Z,33.75
2024-01-04T10:28:06.235Z,39.38
2024-01-04T10:34:27.538Z,33.75
2024-01-04T10:40:47.404Z,39.38
2024-01-04T10:47:09.401Z,22.5
2024-01-04T10:53:29.425Z,22.5
2024-01-04T10:59:51.382Z,33.75
2024-01-04T11:06:11.524Z,33.75
2024-01-04T11:12:33.404Z,28.12
2024-01-04T11:18:53.494Z,16.88
2024-01-04T11:25:15.424Z,11.25
2024-01-04T11:31:35.462Z,16.88
2024-01-04T11:37:57.432Z,28.12
2024-01-04T11:44:17.464Z,39.38
2024-01-04T11:50:39.514Z,28.12
2024-01-04T11:56:59.493Z,22.5
2024-01-04T12:03:21.639Z,11.25
2024-01-04T12:09:41.435Z,11.25
2024-01-04T12:16:03.412Z,11.25
2024-01-04T12:22:23.433Z,5.62
2024-01-04T12:28:45.472Z,5.62
2024-01-04T12:35:05.390Z,22.5
2024-01-04T12:41:27.493Z,22.5
2024-01-04T12:47:47.552Z,22.5
2024-01-04T12:54:09.463Z,16.88
2024-01-04T13:00:29.449Z,16.88
2024-01-04T13:06:51.489Z,28.12
2024-01-04T13:13:11.429Z,16.88
2024-01-04T13:19:33.574Z,16.88
2024-01-04T13:25:53.416Z,16.88
2024-01-04T13:32:15.425Z,39.38
2024-01-04T13:38:35.409Z,33.75
2024-01-04T13:44:57.477Z,33.75
2024-01-04T13:51:17.762Z,28.12
2024-01-04T13:57:39.473Z,28.12
2024-01-04T14:03:59.500Z,22.5
2024-01-04T14:10:21.375Z,22.5
2024-01-04T14:16:41.532Z,28.12
2024-01-04T14:23:03.388Z,22.5
2024-01-04T14:29:23.445Z,11.25
2024-01-04T14:35:45.484Z,5.62
2024-01-04T14:59:06.935Z,5.62
2024-01-04T15:05:26.489Z,5.62
2024-01-04T15:11:48.426Z,5.62
2024-01-04T15:18:08.650Z,0
2024-01-04T15:24:30.399Z,0
2024-01-04T15:30:50.545Z,0
2024-01-04T15:37:12.434Z,0
2024-01-04T15:43:32.470Z,0
2024-01-04T15:49:54.416Z,0
2024-01-04T15:56:14.463Z,0
2024-01-04T16:02:36.471Z,0
2024-01-04T16:08:56.574Z,0
2024-01-04T16:15:18.534Z,0
2024-01-04T16:21:38.535Z,0
2024-01-04T16:28:00.424Z,0
2024-01-04T16:34:20.501Z,0
2024-01-04T16:40:42.392Z,0
2024-01-04T16:47:02.464Z,0
2024-01-04T16:53:24.578Z,0
2024-01-04T16:59:44.425Z,0
2024-01-04T17:06:06.468Z,0
2024-01-04T17:12:26.462Z,0
2024-01-04T17:18:48.540Z,0
2024-01-04T17:25:08.396Z,0
2024-01-04T17:31:30.492Z,0
2024-01-04T17:37:50.452Z,0
2024-01-04T17:44:12.399Z,0
2024-01-04T17:50:32.498Z,0
2024-01-04T17:56:55.374Z,0
2024-01-04T18:03:15.465Z,0
2024-01-04T18:09:37.495Z,0
2024-01-04T18:15:57.365Z,0
2024-01-04T18:22:19.449Z,0
2024-01-04T18:28:39.438Z,0
2024-01-04T18:35:01.412Z,0
2024-01-04T18:41:21.460Z,0
2024-01-04T18:47:43.527Z,0
2024-01-04T18:54:03.429Z,0
2024-01-04T19:00:25.660Z,0
2024-01-04T19:06:45.614Z,0
2024-01-04T19:13:07.378Z,0
2024-01-04T19:19:27.487Z,0
2024-01-04T19:25:49.433Z,0
2024-01-04T19:32:09.401Z,0
2024-01-04T19:38:31.474Z,0
2024-01-04T20:02:29.804Z,0
2024-01-04T20:08:49.415Z,0
2024-01-04T20:15:11.692Z,0
2024-01-04T20:21:31.438Z,0
2024-01-04T20:27:53.422Z,0
2024-01-04T20:34:13.460Z,0
2024-01-04T20:40:35.651Z,0
2024-01-04T20:46:55.427Z,0
2024-01-04T20:53:17.398Z,0
2024-01-04T20:59:37.555Z,0
2024-01-04T21:05:59.445Z,0
2024-01-04T21:12:19.491Z,0
2024-01-04T21:18:42.272Z,0
2024-01-04T21:25:01.439Z,0
2024-01-04T21:31:23.394Z,0
2024-01-04T21:37:43.412Z,0
2024-01-04T21:44:05.504Z,0
2024-01-04T21:50:25.380Z,0
2024-01-04T21:56:47.489Z,0
2024-01-04T22:03:07.456Z,0
2024-01-04T22:09:29.469Z,0
2024-01-04T22:15:49.491Z,0
2024-01-04T22:22:11.407Z,0
2024-01-04T22:28:31.739Z,0
2024-01-04T22:34:53.465Z,0
2024-01-04T22:41:13.401Z,0
2024-01-04T22:47:35.443Z,0
2024-01-04T22:53:55.431Z,0
2024-01-04T23:00:17.480Z,0
2024-01-04T23:23:14.386Z,0
2024-01-04T23:29:34.441Z,0
2024-01-04T23:35:56.410Z,0
2024-01-04T23:42:16.458Z,0
2024-01-04T23:48:38.569Z,0
2024-01-04T23:54:58.426Z,0
